sensor_id;sensor_type;location;lat;lon;timestamp;pressure;altitude;pressure_sealevel;temperature;humidity
56719;BME280;42597;40.636;0.278;2023-07-02T00:00:36;97120.66;;;25.56;49.28
56719;BME280;42597;40.636;0.278;2023-07-02T00:03:04;97117.47;;;25.32;50.05
56719;BME280;42597;40.636;0.278;2023-07-02T00:05:29;97136.84;;;25.19;50.86
56719;BME280;42597;40.636;0.278;2023-07-02T00:07:55;97148.25;;;25.34;50.11
56719;BME280;42597;40.636;0.278;2023-07-02T00:10:20;97130.78;;;25.11;50.63
56719;BME280;42597;40.636;0.278;2023-07-02T00:12:46;97141.69;;;25.02;50.43
56719;BME280;42597;40.636;0.278;2023-07-02T00:15:12;97147.81;;;25.23;50.31
56719;BME280;42597;40.636;0.278;2023-07-02T00:17:37;97094.81;;;24.60;51.54
56719;BME280;42597;40.636;0.278;2023-07-02T00:20:07;97133.88;;;25.14;50.79
56719;BME280;42597;40.636;0.278;2023-07-02T00:22:33;97169.66;;;25.04;50.63
56719;BME280;42597;40.636;0.278;2023-07-02T00:25:01;97134.06;;;25.06;50.72
56719;BME280;42597;40.636;0.278;2023-07-02T00:27:27;97140.56;;;25.00;51.57
56719;BME280;42597;40.636;0.278;2023-07-02T00:29:52;97156.94;;;25.07;51.29
56719;BME280;42597;40.636;0.278;2023-07-02T00:32:18;97144.66;;;25.08;51.20
56719;BME280;42597;40.636;0.278;2023-07-02T00:34:43;97174.25;;;24.56;51.50
56719;BME280;42597;40.636;0.278;2023-07-02T00:37:09;97160.53;;;24.07;52.55
56719;BME280;42597;40.636;0.278;2023-07-02T00:39:34;97163.44;;;24.75;51.92
56719;BME280;42597;40.636;0.278;2023-07-02T00:42:03;97167.13;;;24.84;51.93
56719;BME280;42597;40.636;0.278;2023-07-02T00:44:29;97158.72;;;25.01;51.81
56719;BME280;42597;40.636;0.278;2023-07-02T00:46:55;97161.16;;;24.86;50.97
56719;BME280;42597;40.636;0.278;2023-07-02T00:49:21;97162.47;;;24.81;52.43
56719;BME280;42597;40.636;0.278;2023-07-02T00:51:47;97169.88;;;23.97;52.45
56719;BME280;42597;40.636;0.278;2023-07-02T00:54:12;97171.00;;;24.45;52.07
56719;BME280;42597;40.636;0.278;2023-07-02T00:56:38;97183.44;;;24.66;51.37
56719;BME280;42597;40.636;0.278;2023-07-02T00:59:04;97189.16;;;23.84;52.71
56719;BME280;42597;40.636;0.278;2023-07-02T01:01:29;97182.25;;;24.22;53.00
56719;BME280;42597;40.636;0.278;2023-07-02T01:04:00;97195.38;;;24.18;52.14
56719;BME280;42597;40.636;0.278;2023-07-02T01:06:45;97188.81;;;24.11;52.99
56719;BME280;42597;40.636;0.278;2023-07-02T01:09:11;97214.56;;;24.54;50.32
56719;BME280;42597;40.636;0.278;2023-07-02T01:14:12;97216.97;;;24.52;51.03
56719;BME280;42597;40.636;0.278;2023-07-02T01:16:41;97210.19;;;24.24;51.89
56719;BME280;42597;40.636;0.278;2023-07-02T01:19:13;97220.22;;;24.18;51.50
56719;BME280;42597;40.636;0.278;2023-07-02T01:21:44;97218.50;;;24.82;50.14
56719;BME280;42597;40.636;0.278;2023-07-02T01:24:10;97224.84;;;24.37;52.34
56719;BME280;42597;40.636;0.278;2023-07-02T01:26:36;97224.72;;;23.62;53.37
56719;BME280;42597;40.636;0.278;2023-07-02T01:29:19;97230.38;;;24.37;52.21
56719;BME280;42597;40.636;0.278;2023-07-02T01:31:46;97227.88;;;24.26;52.25
56719;BME280;42597;40.636;0.278;2023-07-02T01:34:12;97220.06;;;24.25;53.92
56719;BME280;42597;40.636;0.278;2023-07-02T01:36:38;97225.84;;;24.14;52.71
56719;BME280;42597;40.636;0.278;2023-07-02T01:39:04;97224.16;;;24.91;51.26
56719;BME280;42597;40.636;0.278;2023-07-02T01:41:29;97223.91;;;24.27;51.97
56719;BME280;42597;40.636;0.278;2023-07-02T01:43:55;97227.81;;;23.64;54.11
56719;BME280;42597;40.636;0.278;2023-07-02T01:46:21;97201.81;;;24.27;53.18
56719;BME280;42597;40.636;0.278;2023-07-02T01:48:46;97224.56;;;23.86;53.74
56719;BME280;42597;40.636;0.278;2023-07-02T01:51:12;97216.03;;;23.64;54.59
56719;BME280;42597;40.636;0.278;2023-07-02T01:53:39;97218.69;;;23.84;53.97
56719;BME280;42597;40.636;0.278;2023-07-02T01:56:05;97227.41;;;23.82;54.19
56719;BME280;42597;40.636;0.278;2023-07-02T01:58:30;97219.34;;;23.55;54.83
56719;BME280;42597;40.636;0.278;2023-07-02T02:00:56;97228.16;;;23.50;54.85
56719;BME280;42597;40.636;0.278;2023-07-02T02:03:22;97219.69;;;24.39;52.91
56719;BME280;42597;40.636;0.278;2023-07-02T02:05:47;97221.50;;;25.00;51.38
56719;BME280;42597;40.636;0.278;2023-07-02T02:08:13;97223.31;;;24.20;52.54
56719;BME280;42597;40.636;0.278;2023-07-02T02:10:39;97219.78;;;24.65;52.77
56719;BME280;42597;40.636;0.278;2023-07-02T02:13:04;97223.28;;;24.52;52.32
56719;BME280;42597;40.636;0.278;2023-07-02T02:15:30;97227.72;;;24.62;51.74
56719;BME280;42597;40.636;0.278;2023-07-02T02:17:56;97234.84;;;24.76;52.67
56719;BME280;42597;40.636;0.278;2023-07-02T02:20:21;97233.03;;;23.79;54.57
56719;BME280;42597;40.636;0.278;2023-07-02T02:22:47;97227.94;;;24.55;52.86
56719;BME280;42597;40.636;0.278;2023-07-02T02:25:13;97229.44;;;24.73;51.89
56719;BME280;42597;40.636;0.278;2023-07-02T02:27:39;97227.88;;;25.14;51.51
56719;BME280;42597;40.636;0.278;2023-07-02T02:30:05;97230.47;;;25.04;51.16
56719;BME280;42597;40.636;0.278;2023-07-02T02:32:30;97224.78;;;25.11;51.42
56719;BME280;42597;40.636;0.278;2023-07-02T02:34:56;97214.88;;;24.85;52.30
56719;BME280;42597;40.636;0.278;2023-07-02T02:37:21;97224.00;;;25.24;51.27
56719;BME280;42597;40.636;0.278;2023-07-02T02:39:48;97218.81;;;24.71;52.74
56719;BME280;42597;40.636;0.278;2023-07-02T02:42:14;97228.88;;;23.87;54.48
56719;BME280;42597;40.636;0.278;2023-07-02T02:44:39;97230.59;;;23.64;55.97
56719;BME280;42597;40.636;0.278;2023-07-02T02:47:05;97233.34;;;24.13;54.41
56719;BME280;42597;40.636;0.278;2023-07-02T02:49:31;97252.63;;;23.48;56.09
56719;BME280;42597;40.636;0.278;2023-07-02T02:51:56;97241.50;;;23.88;55.62
56719;BME280;42597;40.636;0.278;2023-07-02T02:54:22;97234.22;;;23.94;55.63
56719;BME280;42597;40.636;0.278;2023-07-02T02:56:47;97239.56;;;24.01;55.54
56719;BME280;42597;40.636;0.278;2023-07-02T02:59:13;97238.66;;;24.37;54.92
56719;BME280;42597;40.636;0.278;2023-07-02T03:01:38;97241.97;;;23.67;56.19
56719;BME280;42597;40.636;0.278;2023-07-02T03:04:04;97234.53;;;23.63;56.61
56719;BME280;42597;40.636;0.278;2023-07-02T03:06:31;97239.91;;;24.03;55.14
56719;BME280;42597;40.636;0.278;2023-07-02T03:08:56;97246.31;;;23.48;56.68
56719;BME280;42597;40.636;0.278;2023-07-02T03:11:22;97243.69;;;23.60;56.46
56719;BME280;42597;40.636;0.278;2023-07-02T03:13:47;97247.66;;;24.25;54.95
56719;BME280;42597;40.636;0.278;2023-07-02T03:16:13;97248.34;;;23.27;57.57
56719;BME280;42597;40.636;0.278;2023-07-02T03:18:39;97242.25;;;24.79;53.58
56719;BME280;42597;40.636;0.278;2023-07-02T03:21:04;97252.13;;;24.35;53.86
56719;BME280;42597;40.636;0.278;2023-07-02T03:23:30;97265.13;;;23.17;59.00
56719;BME280;42597;40.636;0.278;2023-07-02T03:25:55;97254.56;;;24.33;54.58
56719;BME280;42597;40.636;0.278;2023-07-02T03:28:21;97260.03;;;23.51;56.51
56719;BME280;42597;40.636;0.278;2023-07-02T03:30:46;97252.59;;;24.01;55.24
56719;BME280;42597;40.636;0.278;2023-07-02T03:33:12;97248.16;;;24.20;55.73
56719;BME280;42597;40.636;0.278;2023-07-02T03:35:37;97262.97;;;23.44;56.55
56719;BME280;42597;40.636;0.278;2023-07-02T03:38:04;97258.53;;;23.99;55.20
56719;BME280;42597;40.636;0.278;2023-07-02T03:40:30;97260.56;;;25.02;53.12
56719;BME280;42597;40.636;0.278;2023-07-02T03:42:56;97250.13;;;25.10;52.44
56719;BME280;42597;40.636;0.278;2023-07-02T03:45:21;97253.00;;;25.32;51.47
56719;BME280;42597;40.636;0.278;2023-07-02T03:47:47;97252.03;;;25.26;51.78
56719;BME280;42597;40.636;0.278;2023-07-02T03:50:12;97254.44;;;24.82;52.04
56719;BME280;42597;40.636;0.278;2023-07-02T03:52:38;97251.25;;;24.96;52.93
56719;BME280;42597;40.636;0.278;2023-07-02T03:55:04;97252.41;;;23.92;56.00
56719;BME280;42597;40.636;0.278;2023-07-02T03:57:30;97268.63;;;23.37;57.17
56719;BME280;42597;40.636;0.278;2023-07-02T03:59:55;97252.59;;;24.17;55.67
56719;BME280;42597;40.636;0.278;2023-07-02T04:02:21;97259.47;;;24.71;52.94
56719;BME280;42597;40.636;0.278;2023-07-02T04:04:46;97253.78;;;23.31;57.68
56719;BME280;42597;40.636;0.278;2023-07-02T04:07:12;97256.44;;;24.52;54.56
56719;BME280;42597;40.636;0.278;2023-07-02T04:09:37;97239.31;;;24.86;52.88
56719;BME280;42597;40.636;0.278;2023-07-02T04:12:04;97247.22;;;24.26;53.83
56719;BME280;42597;40.636;0.278;2023-07-02T04:14:29;97252.84;;;24.06;56.06
56719;BME280;42597;40.636;0.278;2023-07-02T04:16:55;97247.13;;;24.46;52.79
56719;BME280;42597;40.636;0.278;2023-07-02T04:19:20;97249.06;;;24.00;55.62
56719;BME280;42597;40.636;0.278;2023-07-02T04:21:46;97259.38;;;24.29;55.13
56719;BME280;42597;40.636;0.278;2023-07-02T04:24:12;97263.41;;;24.57;53.39
56719;BME280;42597;40.636;0.278;2023-07-02T04:26:37;97264.28;;;24.83;53.05
56719;BME280;42597;40.636;0.278;2023-07-02T04:29:03;97270.88;;;24.11;55.34
56719;BME280;42597;40.636;0.278;2023-07-02T04:31:29;97261.63;;;24.18;55.17
56719;BME280;42597;40.636;0.278;2023-07-02T04:33:54;97272.56;;;22.80;58.29
56719;BME280;42597;40.636;0.278;2023-07-02T04:36:20;97275.78;;;24.03;54.31
56719;BME280;42597;40.636;0.278;2023-07-02T04:38:45;97272.81;;;24.89;53.47
56719;BME280;42597;40.636;0.278;2023-07-02T04:41:11;97270.56;;;24.83;53.35
56719;BME280;42597;40.636;0.278;2023-07-02T04:43:36;97269.00;;;25.11;52.43
56719;BME280;42597;40.636;0.278;2023-07-02T04:46:02;97269.53;;;25.06;52.15
56719;BME280;42597;40.636;0.278;2023-07-02T04:48:28;97270.50;;;25.42;50.99
56719;BME280;42597;40.636;0.278;2023-07-02T04:50:54;97277.88;;;24.77;53.27
56719;BME280;42597;40.636;0.278;2023-07-02T04:53:19;97276.78;;;25.17;51.90
56719;BME280;42597;40.636;0.278;2023-07-02T04:55:45;97282.00;;;24.40;53.40
56719;BME280;42597;40.636;0.278;2023-07-02T04:58:10;97283.91;;;24.72;52.93
56719;BME280;42597;40.636;0.278;2023-07-02T05:00:36;97280.91;;;25.08;52.60
56719;BME280;42597;40.636;0.278;2023-07-02T05:03:01;97284.25;;;24.29;53.80
56719;BME280;42597;40.636;0.278;2023-07-02T05:05:27;97284.31;;;25.00;52.82
56719;BME280;42597;40.636;0.278;2023-07-02T05:07:54;97270.34;;;25.20;52.24
56719;BME280;42597;40.636;0.278;2023-07-02T05:10:20;97279.13;;;24.89;53.12
56719;BME280;42597;40.636;0.278;2023-07-02T05:12:46;97277.00;;;24.19;54.45
56719;BME280;42597;40.636;0.278;2023-07-02T05:15:12;97272.66;;;24.34;54.79
56719;BME280;42597;40.636;0.278;2023-07-02T05:17:37;97276.47;;;24.24;54.35
56719;BME280;42597;40.636;0.278;2023-07-02T05:20:03;97277.16;;;24.11;54.89
56719;BME280;42597;40.636;0.278;2023-07-02T05:22:32;97267.13;;;24.34;55.74
56719;BME280;42597;40.636;0.278;2023-07-02T05:24:57;97269.41;;;24.68;53.12
56719;BME280;42597;40.636;0.278;2023-07-02T05:27:23;97278.56;;;23.14;57.20
56719;BME280;42597;40.636;0.278;2023-07-02T05:29:49;97280.28;;;23.81;55.52
56719;BME280;42597;40.636;0.278;2023-07-02T05:32:14;97278.13;;;24.05;55.37
56719;BME280;42597;40.636;0.278;2023-07-02T05:34:40;97295.97;;;23.84;55.02
56719;BME280;42597;40.636;0.278;2023-07-02T05:37:06;97279.19;;;24.73;54.30
56719;BME280;42597;40.636;0.278;2023-07-02T05:39:33;97289.09;;;24.99;52.91
56719;BME280;42597;40.636;0.278;2023-07-02T05:41:59;97281.41;;;25.20;51.85
56719;BME280;42597;40.636;0.278;2023-07-02T05:44:24;97301.31;;;24.56;52.33
56719;BME280;42597;40.636;0.278;2023-07-02T05:46:50;97288.34;;;24.70;53.34
56719;BME280;42597;40.636;0.278;2023-07-02T05:49:15;97300.63;;;24.52;52.87
56719;BME280;42597;40.636;0.278;2023-07-02T05:51:41;97299.06;;;24.51;53.15
56719;BME280;42597;40.636;0.278;2023-07-02T05:54:07;97304.06;;;23.75;54.95
56719;BME280;42597;40.636;0.278;2023-07-02T05:56:32;97305.75;;;24.05;54.13
56719;BME280;42597;40.636;0.278;2023-07-02T05:58:58;97307.84;;;24.92;53.21
56719;BME280;42597;40.636;0.278;2023-07-02T06:01:23;97293.00;;;24.73;52.95
56719;BME280;42597;40.636;0.278;2023-07-02T06:03:50;97295.13;;;24.52;53.87
56719;BME280;42597;40.636;0.278;2023-07-02T06:06:15;97301.56;;;24.91;52.52
56719;BME280;42597;40.636;0.278;2023-07-02T06:08:41;97290.22;;;25.02;51.68
56719;BME280;42597;40.636;0.278;2023-07-02T06:11:06;97284.91;;;25.07;51.84
56719;BME280;42597;40.636;0.278;2023-07-02T06:13:32;97291.91;;;25.12;51.54
56719;BME280;42597;40.636;0.278;2023-07-02T06:15:58;97291.66;;;25.06;51.15
56719;BME280;42597;40.636;0.278;2023-07-02T06:18:23;97306.59;;;24.80;50.93
56719;BME280;42597;40.636;0.278;2023-07-02T06:20:49;97299.59;;;25.33;50.75
56719;BME280;42597;40.636;0.278;2023-07-02T06:23:14;97307.59;;;24.73;51.92
56719;BME280;42597;40.636;0.278;2023-07-02T06:25:40;97316.38;;;24.68;52.07
56719;BME280;42597;40.636;0.278;2023-07-02T06:28:05;97301.69;;;24.71;52.11
56719;BME280;42597;40.636;0.278;2023-07-02T06:30:31;97301.38;;;25.40;51.19
56719;BME280;42597;40.636;0.278;2023-07-02T06:32:56;97310.97;;;25.77;49.95
56719;BME280;42597;40.636;0.278;2023-07-02T06:35:22;97307.38;;;25.77;49.71
56719;BME280;42597;40.636;0.278;2023-07-02T06:37:48;97308.22;;;24.94;50.39
56719;BME280;42597;40.636;0.278;2023-07-02T06:40:13;97301.50;;;25.07;49.93
56719;BME280;42597;40.636;0.278;2023-07-02T06:42:40;97298.78;;;24.91;50.79
56719;BME280;42597;40.636;0.278;2023-07-02T06:45:06;97312.09;;;25.38;49.16
56719;BME280;42597;40.636;0.278;2023-07-02T06:47:33;97310.41;;;25.28;49.41
56719;BME280;42597;40.636;0.278;2023-07-02T06:49:58;97300.28;;;25.50;49.33
56719;BME280;42597;40.636;0.278;2023-07-02T06:52:24;97298.59;;;25.40;49.87
56719;BME280;42597;40.636;0.278;2023-07-02T06:54:50;97304.09;;;25.82;48.95
56719;BME280;42597;40.636;0.278;2023-07-02T06:57:15;97294.50;;;25.32;49.74
56719;BME280;42597;40.636;0.278;2023-07-02T06:59:41;97309.13;;;25.45;48.74
56719;BME280;42597;40.636;0.278;2023-07-02T07:02:07;97312.22;;;25.47;49.27
56719;BME280;42597;40.636;0.278;2023-07-02T07:04:32;97314.22;;;25.34;48.65
56719;BME280;42597;40.636;0.278;2023-07-02T07:07:00;97308.47;;;25.41;48.79
56719;BME280;42597;40.636;0.278;2023-07-02T07:09:25;97307.72;;;26.04;47.63
56719;BME280;42597;40.636;0.278;2023-07-02T07:11:51;97323.66;;;25.62;48.00
56719;BME280;42597;40.636;0.278;2023-07-02T07:14:16;97325.88;;;25.80;48.15
56719;BME280;42597;40.636;0.278;2023-07-02T07:16:42;97323.78;;;25.84;48.00
56719;BME280;42597;40.636;0.278;2023-07-02T07:19:07;97333.97;;;25.87;47.85
56719;BME280;42597;40.636;0.278;2023-07-02T07:21:34;97346.28;;;25.86;47.25
56719;BME280;42597;40.636;0.278;2023-07-02T07:24:00;97335.34;;;25.41;48.61
56719;BME280;42597;40.636;0.278;2023-07-02T07:26:25;97332.63;;;26.04;47.81
56719;BME280;42597;40.636;0.278;2023-07-02T07:28:51;97342.63;;;25.89;46.64
56719;BME280;42597;40.636;0.278;2023-07-02T07:31:16;97337.13;;;26.37;45.82
56719;BME280;42597;40.636;0.278;2023-07-02T07:33:42;97327.66;;;25.99;46.90
56719;BME280;42597;40.636;0.278;2023-07-02T07:36:07;97328.75;;;26.27;46.26
56719;BME280;42597;40.636;0.278;2023-07-02T07:38:34;97322.63;;;26.45;46.04
56719;BME280;42597;40.636;0.278;2023-07-02T07:40:59;97318.66;;;26.21;46.33
56719;BME280;42597;40.636;0.278;2023-07-02T07:43:25;97326.16;;;26.58;45.92
56719;BME280;42597;40.636;0.278;2023-07-02T07:45:50;97320.28;;;26.44;45.92
56719;BME280;42597;40.636;0.278;2023-07-02T07:48:16;97316.84;;;26.52;45.18
56719;BME280;42597;40.636;0.278;2023-07-02T07:50:41;97324.88;;;26.72;44.45
56719;BME280;42597;40.636;0.278;2023-07-02T07:53:07;97325.78;;;26.69;45.76
56719;BME280;42597;40.636;0.278;2023-07-02T07:55:32;97324.63;;;27.01;44.29
56719;BME280;42597;40.636;0.278;2023-07-02T07:57:58;97321.09;;;26.79;43.70
56719;BME280;42597;40.636;0.278;2023-07-02T08:00:24;97313.56;;;26.79;43.83
56719;BME280;42597;40.636;0.278;2023-07-02T08:02:50;97325.28;;;27.05;43.03
56719;BME280;42597;40.636;0.278;2023-07-02T08:05:17;97308.88;;;26.54;43.94
56719;BME280;42597;40.636;0.278;2023-07-02T08:07:43;97323.78;;;26.70;44.95
56719;BME280;42597;40.636;0.278;2023-07-02T08:10:09;97329.41;;;27.14;43.29
56719;BME280;42597;40.636;0.278;2023-07-02T08:12:35;97316.00;;;27.43;41.60
56719;BME280;42597;40.636;0.278;2023-07-02T08:15:00;97323.38;;;27.37;42.38
56719;BME280;42597;40.636;0.278;2023-07-02T08:17:26;97327.38;;;27.36;42.68
56719;BME280;42597;40.636;0.278;2023-07-02T08:19:52;97325.84;;;27.35;42.02
56719;BME280;42597;40.636;0.278;2023-07-02T08:22:17;97328.41;;;27.51;41.93
56719;BME280;42597;40.636;0.278;2023-07-02T08:24:43;97329.03;;;27.55;42.43
56719;BME280;42597;40.636;0.278;2023-07-02T08:27:09;97323.59;;;27.74;42.06
56719;BME280;42597;40.636;0.278;2023-07-02T08:29:35;97317.44;;;27.48;41.17
56719;BME280;42597;40.636;0.278;2023-07-02T08:32:01;97325.63;;;27.51;40.66
56719;BME280;42597;40.636;0.278;2023-07-02T08:34:27;97320.75;;;27.65;40.46
56719;BME280;42597;40.636;0.278;2023-07-02T08:36:52;97313.78;;;27.82;40.06
56719;BME280;42597;40.636;0.278;2023-07-02T08:39:18;97319.25;;;28.04;40.29
56719;BME280;42597;40.636;0.278;2023-07-02T08:44:11;97314.19;;;27.05;44.04
56719;BME280;42597;40.636;0.278;2023-07-02T08:46:39;97310.69;;;27.89;41.12
56719;BME280;42597;40.636;0.278;2023-07-02T08:49:04;97325.06;;;27.66;40.68
56719;BME280;42597;40.636;0.278;2023-07-02T08:51:30;97310.13;;;27.94;40.21
56719;BME280;42597;40.636;0.278;2023-07-02T08:53:55;97318.94;;;27.71;40.69
56719;BME280;42597;40.636;0.278;2023-07-02T08:56:21;97316.34;;;28.17;39.92
56719;BME280;42597;40.636;0.278;2023-07-02T08:58:46;97309.88;;;28.29;39.37
56719;BME280;42597;40.636;0.278;2023-07-02T09:01:13;97312.38;;;28.27;39.51
56719;BME280;42597;40.636;0.278;2023-07-02T09:03:40;97313.94;;;28.37;39.08
56719;BME280;42597;40.636;0.278;2023-07-02T09:06:10;97311.03;;;27.91;41.32
56719;BME280;42597;40.636;0.278;2023-07-02T09:08:36;97311.47;;;28.39;39.40
56719;BME280;42597;40.636;0.278;2023-07-02T09:19:07;97308.56;;;28.89;38.89
56719;BME280;42597;40.636;0.278;2023-07-02T09:21:49;97300.09;;;29.01;37.77
56719;BME280;42597;40.636;0.278;2023-07-02T09:24:19;97301.34;;;29.00;38.64
56719;BME280;42597;40.636;0.278;2023-07-02T09:27:18;97301.78;;;28.81;39.13
56719;BME280;42597;40.636;0.278;2023-07-02T09:29:36;97309.94;;;28.57;38.60
56719;BME280;42597;40.636;0.278;2023-07-02T09:32:05;97311.81;;;29.24;37.64
56719;BME280;42597;40.636;0.278;2023-07-02T09:34:35;97306.00;;;28.17;40.45
56719;BME280;42597;40.636;0.278;2023-07-02T09:37:02;97307.78;;;29.25;37.38
56719;BME280;42597;40.636;0.278;2023-07-02T09:39:30;97309.31;;;29.26;37.79
56719;BME280;42597;40.636;0.278;2023-07-02T09:41:57;97300.63;;;29.51;37.12
56719;BME280;42597;40.636;0.278;2023-07-02T09:44:29;97305.31;;;29.18;36.15
56719;BME280;42597;40.636;0.278;2023-07-02T09:47:03;97306.53;;;29.35;36.52
56719;BME280;42597;40.636;0.278;2023-07-02T09:49:35;97299.75;;;29.79;35.45
56719;BME280;42597;40.636;0.278;2023-07-02T09:52:03;97307.78;;;29.25;36.62
56719;BME280;42597;40.636;0.278;2023-07-02T09:54:29;97297.75;;;29.79;36.29
56719;BME280;42597;40.636;0.278;2023-07-02T09:56:56;97294.41;;;29.66;36.27
56719;BME280;42597;40.636;0.278;2023-07-02T09:59:22;97297.78;;;29.70;35.75
56719;BME280;42597;40.636;0.278;2023-07-02T10:01:47;97294.38;;;29.75;36.17
56719;BME280;42597;40.636;0.278;2023-07-02T10:04:14;97294.34;;;29.84;34.95
56719;BME280;42597;40.636;0.278;2023-07-02T10:06:49;97294.59;;;29.95;35.05
56719;BME280;42597;40.636;0.278;2023-07-02T10:09:16;97290.59;;;29.87;34.40
56719;BME280;42597;40.636;0.278;2023-07-02T10:11:42;97298.84;;;30.06;35.20
56719;BME280;42597;40.636;0.278;2023-07-02T10:14:08;97302.94;;;29.95;34.71
56719;BME280;42597;40.636;0.278;2023-07-02T10:16:34;97303.78;;;30.11;34.78
56719;BME280;42597;40.636;0.278;2023-07-02T10:19:12;97295.22;;;29.90;34.22
56719;BME280;42597;40.636;0.278;2023-07-02T10:21:37;97288.22;;;29.52;40.73
56719;BME280;42597;40.636;0.278;2023-07-02T10:24:29;97284.66;;;30.04;40.25
56719;BME280;42597;40.636;0.278;2023-07-02T10:27:01;97306.63;;;30.02;41.05
56719;BME280;42597;40.636;0.278;2023-07-02T10:29:27;97308.50;;;29.53;43.22
56719;BME280;42597;40.636;0.278;2023-07-02T10:31:55;97303.00;;;29.25;44.28
56719;BME280;42597;40.636;0.278;2023-07-02T10:34:47;97304.13;;;29.70;42.54
56719;BME280;42597;40.636;0.278;2023-07-02T10:37:13;97314.53;;;29.51;43.28
56719;BME280;42597;40.636;0.278;2023-07-02T10:39:39;97305.00;;;29.86;42.28
56719;BME280;42597;40.636;0.278;2023-07-02T10:42:08;97306.72;;;28.95;44.66
56719;BME280;42597;40.636;0.278;2023-07-02T10:44:47;97303.06;;;29.68;43.90
56719;BME280;42597;40.636;0.278;2023-07-02T10:47:12;97303.50;;;29.15;44.66
56719;BME280;42597;40.636;0.278;2023-07-02T10:49:38;97306.50;;;29.44;44.24
56719;BME280;42597;40.636;0.278;2023-07-02T10:52:04;97309.25;;;29.63;43.96
56719;BME280;42597;40.636;0.278;2023-07-02T10:54:46;97310.91;;;30.12;42.62
56719;BME280;42597;40.636;0.278;2023-07-02T10:57:17;97303.88;;;29.41;43.78
56719;BME280;42597;40.636;0.278;2023-07-02T10:59:47;97312.09;;;29.87;44.04
56719;BME280;42597;40.636;0.278;2023-07-02T11:02:13;97303.06;;;29.59;42.88
56719;BME280;42597;40.636;0.278;2023-07-02T11:04:39;97307.66;;;29.80;42.62
56719;BME280;42597;40.636;0.278;2023-07-02T11:07:05;97306.34;;;29.99;42.84
56719;BME280;42597;40.636;0.278;2023-07-02T11:09:30;97300.31;;;29.49;42.79
56719;BME280;42597;40.636;0.278;2023-07-02T11:11:59;97304.22;;;29.34;42.99
56719;BME280;42597;40.636;0.278;2023-07-02T11:14:31;97297.69;;;29.46;43.21
56719;BME280;42597;40.636;0.278;2023-07-02T11:16:58;97301.16;;;29.83;42.51
56719;BME280;42597;40.636;0.278;2023-07-02T11:19:24;97304.63;;;29.60;43.64
56719;BME280;42597;40.636;0.278;2023-07-02T11:21:55;97299.41;;;29.86;42.93
56719;BME280;42597;40.636;0.278;2023-07-02T11:24:32;97300.28;;;29.68;43.56
56719;BME280;42597;40.636;0.278;2023-07-02T11:26:59;97297.78;;;29.70;42.88
56719;BME280;42597;40.636;0.278;2023-07-02T11:29:25;97296.63;;;29.86;43.37
56719;BME280;42597;40.636;0.278;2023-07-02T11:31:50;97301.38;;;29.61;43.38
56719;BME280;42597;40.636;0.278;2023-07-02T11:34:22;97295.31;;;29.63;43.84
56719;BME280;42597;40.636;0.278;2023-07-02T11:36:50;97301.38;;;29.61;42.98
56719;BME280;42597;40.636;0.278;2023-07-02T11:39:15;97302.63;;;29.93;43.32
56719;BME280;42597;40.636;0.278;2023-07-02T11:41:44;97303.50;;;29.66;41.87
56719;BME280;42597;40.636;0.278;2023-07-02T11:44:10;97296.94;;;30.21;43.45
56719;BME280;42597;40.636;0.278;2023-07-02T11:46:35;97295.91;;;30.09;44.64
56719;BME280;42597;40.636;0.278;2023-07-02T11:49:02;97295.13;;;30.09;43.67
56719;BME280;42597;40.636;0.278;2023-07-02T11:51:28;97298.25;;;30.02;43.71
56719;BME280;42597;40.636;0.278;2023-07-02T11:53:53;97290.78;;;29.84;44.16
56719;BME280;42597;40.636;0.278;2023-07-02T11:56:19;97296.34;;;29.14;45.56
56719;BME280;42597;40.636;0.278;2023-07-02T11:58:44;97295.97;;;29.58;45.50
56719;BME280;42597;40.636;0.278;2023-07-02T12:01:10;97296.47;;;29.89;42.80
56719;BME280;42597;40.636;0.278;2023-07-02T12:03:35;97295.81;;;29.94;45.00
56719;BME280;42597;40.636;0.278;2023-07-02T12:06:01;97296.09;;;29.72;43.63
56719;BME280;42597;40.636;0.278;2023-07-02T12:08:27;97294.28;;;29.93;45.12
56719;BME280;42597;40.636;0.278;2023-07-02T12:10:53;97291.00;;;29.95;45.62
56719;BME280;42597;40.636;0.278;2023-07-02T12:13:18;97289.91;;;30.02;45.97
56719;BME280;42597;40.636;0.278;2023-07-02T12:15:47;97281.88;;;29.94;43.75
56719;BME280;42597;40.636;0.278;2023-07-02T12:18:13;97277.31;;;30.15;46.42
56719;BME280;42597;40.636;0.278;2023-07-02T12:20:39;97281.16;;;29.33;42.82
56719;BME280;42597;40.636;0.278;2023-07-02T12:23:05;97287.34;;;29.37;48.48
56719;BME280;42597;40.636;0.278;2023-07-02T12:25:31;97273.97;;;29.69;46.62
56719;BME280;42597;40.636;0.278;2023-07-02T12:27:56;97280.09;;;29.82;45.89
56719;BME280;42597;40.636;0.278;2023-07-02T12:30:22;97272.81;;;30.18;47.27
56719;BME280;42597;40.636;0.278;2023-07-02T12:32:48;97284.78;;;29.76;46.19
56719;BME280;42597;40.636;0.278;2023-07-02T12:35:13;97274.41;;;29.77;47.30
56719;BME280;42597;40.636;0.278;2023-07-02T12:37:43;97272.94;;;29.48;47.20
56719;BME280;42597;40.636;0.278;2023-07-02T12:40:09;97274.00;;;29.50;44.84
56719;BME280;42597;40.636;0.278;2023-07-02T12:42:35;97281.97;;;29.76;47.59
56719;BME280;42597;40.636;0.278;2023-07-02T12:45:01;97279.91;;;29.43;43.55
56719;BME280;42597;40.636;0.278;2023-07-02T12:47:26;97272.16;;;29.57;48.91
56719;BME280;42597;40.636;0.278;2023-07-02T12:49:52;97267.72;;;29.83;48.31
56719;BME280;42597;40.636;0.278;2023-07-02T12:52:17;97263.97;;;29.86;47.31
56719;BME280;42597;40.636;0.278;2023-07-02T12:54:43;97266.69;;;29.71;45.33
56719;BME280;42597;40.636;0.278;2023-07-02T12:57:08;97262.38;;;29.94;48.31
56719;BME280;42597;40.636;0.278;2023-07-02T12:59:34;97262.44;;;30.18;47.69
56719;BME280;42597;40.636;0.278;2023-07-02T13:01:59;97253.16;;;29.88;49.28
56719;BME280;42597;40.636;0.278;2023-07-02T13:04:25;97256.91;;;29.76;49.99
56719;BME280;42597;40.636;0.278;2023-07-02T13:06:50;97258.41;;;30.10;48.83
56719;BME280;42597;40.636;0.278;2023-07-02T13:09:16;97258.59;;;30.07;48.68